Etusivu
METAR-TAF:

METAR-TAF

Lentoasemat :

Antonio B. Won Patin kansainvälinen lentoasema

Hagåtña, Guam, Yhdysvallat

Leveyspiiri: 13-29N, Pituuspiiri: 144-48E, korkeus merenpinnasta: 91 m

Tämänhetkinen sää

Tämä raportti tehtiin 49 minuuttia sitten, kello 03.54 UTC
Tuuli 9 kn pohjoisesta/koillisesta
Lämpötila 32°C
Kosteus 56%
Ilmanpaine 1010 hPa
Näkyvyys: 16.1 km
Muutamia pilviä 3400 ft:n korkeudessa

METAR: PGUM 130354Z 03009KT 10SM FEW034 32/22 A2983 RMK AO2 SLP094 T03170222

Aika: 14:43 (04:43 UTC)

Sääennuste

Tämä raportti tehtiin 2 tuntia ja 21 minuuttia sitten, kello 02.22 UTC
Ennuste voimassa 13. päivästä klo 02 UTC - 14. päivään klo 06 UTC
Tuuli 10 kn idästä/koillisesta
Näkyvyys: 10 km
Hajanaisia pilviä 2000 ft:n korkeudessa
Hajanaisia pilviä 5000 ft:n korkeudessa
sadekuuroja näköpiirissä

TAF: PGUM 130222Z 1302/1406 07010KT P6SM VCSH SCT020 SCT050

Säähavainnot ja -ennusteet yli 4000 lentoasemalta (METAR- ja TAF-raportit).

Käytössä olevat sääasemat on merkitty karttaan keltaisilla ja punaisilla pisteillä.

Aseta hiiri pisteen päälle nähdäksesi sääaseman nimen.

Klikkaa sitten nähdäksesi säähavainnot ja -ennusteet.

Kartan vaihtaminen: klikkaa mustalla rastilla varustettuja vihreitä pisteitä, niin voit zoomata sisään; viivalla varustettua vihreää pistettä, niin voit zoomata ulos tai vihreitä nuolia, niin pääset viereisille kartoille.


METAR-TAF: